Time;durP1;ratioP1;P1;durP2;ratioP2;P2;SDS_P1;SDS_P2;PMS_P1;PMS_P2;Temp;Humidity;BMP_temperature;BMP_pressure;BME280_temperature;BME280_humidity;BME280_pressure;Samples;Min_cycle;Max_cycle;Signal;HPM_P1;HPM_P2
2024/01/24 00:01:52;;;;;;;198.80;188.52;;;13.50;99.90;;;;;;5052198;28;20502;-88
2024/01/24 00:04:18;;;;;;;185.50;175.80;;;13.50;99.90;;;;;;5052265;28;20060;-87
2024/01/24 00:06:44;;;;;;;161.23;152.73;;;13.50;99.90;;;;;;5056668;28;20040;-86
2024/01/24 00:09:10;;;;;;;209.57;198.43;;;13.50;99.90;;;;;;5056728;28;20056;-86
2024/01/24 00:11:36;;;;;;;186.45;176.50;;;13.50;99.90;;;;;;5056318;28;20044;-87
2024/01/24 00:14:03;;;;;;;154.35;146.20;;;13.50;99.90;;;;;;5054280;28;20056;-86
2024/01/24 00:16:29;;;;;;;182.57;172.88;;;13.50;99.90;;;;;;5058104;28;20052;-87
2024/01/24 00:18:55;;;;;;;182.00;172.27;;;13.50;99.90;;;;;;5077018;28;20036;-86
2024/01/24 00:21:21;;;;;;;207.68;196.82;;;13.50;99.90;;;;;;5077366;28;20031;-86
2024/01/24 00:23:47;;;;;;;197.95;187.57;;;13.50;99.90;;;;;;5055979;28;20460;-86
2024/01/24 00:26:13;;;;;;;200.88;189.77;;;13.50;99.90;;;;;;5056465;28;20041;-86
2024/01/24 00:28:43;;;;;;;175.90;166.57;;;13.60;99.90;;;;;;5039614;28;20382;-84
2024/01/24 00:31:12;;;;;;;168.30;159.25;;;13.60;99.90;;;;;;5055900;28;20049;-86
2024/01/24 00:33:38;;;;;;;272.85;257.98;;;13.60;99.90;;;;;;5039142;28;20052;-86
2024/01/24 00:36:05;;;;;;;255.77;241.50;;;13.50;99.90;;;;;;5055949;28;20033;-86
2024/01/24 00:38:31;;;;;;;231.85;217.45;;;13.60;99.90;;;;;;5055925;28;20387;-87
2024/01/24 00:40:57;;;;;;;198.65;187.77;;;13.60;99.90;;;;;;5054159;28;20491;-79
2024/01/24 00:43:23;;;;;;;224.88;212.88;;;13.60;99.90;;;;;;5033853;28;20044;-81
2024/01/24 00:45:49;;;;;;;389.25;366.42;;;13.60;99.90;;;;;;5053822;28;20490;-80
2024/01/24 00:48:16;;;;;;;319.67;301.85;;;13.60;99.90;;;;;;5054103;28;20040;-80
2024/01/24 00:50:42;;;;;;;290.70;274.50;;;13.60;99.90;;;;;;5035577;28;20041;-81
2024/01/24 00:53:08;;;;;;;264.33;249.43;;;13.60;99.90;;;;;;5053375;28;20044;-79
2024/01/24 00:55:34;;;;;;;290.65;274.40;;;13.60;99.90;;;;;;5035063;28;20040;-80
2024/01/24 00:58:00;;;;;;;177.07;167.43;;;13.60;99.90;;;;;;5053880;28;20467;-80
2024/01/24 01:00:26;;;;;;;243.57;230.07;;;13.70;99.90;;;;;;5053128;28;20044;-80
2024/01/24 01:02:52;;;;;;;175.98;166.40;;;13.60;99.90;;;;;;5054312;28;20468;-81
2024/01/24 01:05:19;;;;;;;174.77;165.25;;;13.70;99.90;;;;;;5053389;28;20045;-80
2024/01/24 01:07:45;;;;;;;187.32;177.25;;;13.60;99.90;;;;;;5053122;28;20424;-80
2024/01/24 01:10:11;;;;;;;227.55;215.25;;;13.60;99.90;;;;;;5051913;28;20079;-81
2024/01/24 01:12:37;;;;;;;234.15;221.85;;;13.60;99.90;;;;;;5052450;28;20032;-80
2024/01/24 01:15:06;;;;;;;312.02;295.08;;;13.70;99.90;;;;;;5051836;28;20045;-80
2024/01/24 01:17:33;;;;;;;290.80;274.75;;;13.70;99.90;;;;;;5049174;28;20491;-81
2024/01/24 01:19:59;;;;;;;228.32;215.52;;;13.70;99.90;;;;;;5053179;28;20044;-80
2024/01/24 01:22:25;;;;;;;238.70;225.63;;;13.70;99.90;;;;;;5052438;28;20033;-80
2024/01/24 01:24:51;;;;;;;292.02;276.02;;;13.60;99.90;;;;;;5014873;28;20056;-81
2024/01/24 01:27:17;;;;;;;236.75;223.63;;;13.60;99.90;;;;;;5018784;28;20045;-81
2024/01/24 01:29:43;;;;;;;255.82;241.82;;;13.60;99.90;;;;;;5054154;28;20032;-81
2024/01/24 01:32:09;;;;;;;253.25;239.40;;;13.60;99.90;;;;;;5035411;28;20499;-79
2024/01/24 01:34:35;;;;;;;277.00;261.83;;;13.70;99.90;;;;;;5035778;28;20047;-82
2024/01/24 01:37:01;;;;;;;159.77;151.25;;;13.70;99.90;;;;;;5041553;28;20040;-79
2024/01/24 01:39:28;;;;;;;236.80;224.23;;;13.60;99.90;;;;;;5038078;28;20040;-80
2024/01/24 01:41:54;;;;;;;263.52;249.27;;;13.70;99.90;;;;;;5052316;28;20041;-86
2024/01/24 01:44:21;;;;;;;233.43;220.88;;;13.70;99.90;;;;;;5053666;28;20371;-86
2024/01/24 01:46:47;;;;;;;157.77;149.35;;;13.70;99.90;;;;;;5054240;28;20033;-86
2024/01/24 01:49:13;;;;;;;239.95;226.95;;;13.70;99.90;;;;;;5037494;28;20029;-87
2024/01/24 01:51:42;;;;;;;233.13;220.60;;;13.70;99.90;;;;;;5035438;28;20029;-85
2024/01/24 01:54:08;;;;;;;235.75;223.23;;;13.70;99.90;;;;;;5037043;28;20048;-87
2024/01/24 01:56:37;;;;;;;274.52;259.80;;;13.70;99.90;;;;;;5036598;28;20028;-87
2024/01/24 01:59:05;;;;;;;183.35;173.52;;;13.70;99.90;;;;;;5036744;28;20056;-87
2024/01/24 02:01:31;;;;;;;153.48;145.43;;;13.70;99.90;;;;;;5048817;28;20044;-86
2024/01/24 02:04:01;;;;;;;183.90;174.25;;;13.70;99.90;;;;;;5035889;28;20479;-86
2024/01/24 02:06:28;;;;;;;181.38;171.80;;;13.80;99.90;;;;;;5035706;28;20495;-86
2024/01/24 02:08:55;;;;;;;211.38;199.57;;;13.70;99.90;;;;;;5053098;28;20043;-87
2024/01/24 02:11:21;;;;;;;261.38;246.50;;;13.80;99.90;;;;;;5055046;28;20037;-87
2024/01/24 02:13:47;;;;;;;185.88;175.90;;;13.80;99.90;;;;;;5035469;28;20041;-86
2024/01/24 02:16:13;;;;;;;242.35;228.93;;;13.70;99.90;;;;;;5052992;28;20041;-86
2024/01/24 02:18:42;;;;;;;175.57;165.75;;;13.80;99.90;;;;;;5051531;28;20040;-86
2024/01/24 02:21:08;;;;;;;203.07;192.00;;;13.80;99.90;;;;;;5054615;28;20040;-86
2024/01/24 02:23:34;;;;;;;163.05;154.40;;;13.70;99.90;;;;;;5053831;28;20025;-87
2024/01/24 02:26:01;;;;;;;195.35;184.85;;;13.80;99.90;;;;;;5019032;28;20053;-85
2024/01/24 02:28:27;;;;;;;179.75;170.30;;;13.80;99.90;;;;;;5053768;28;20468;-87
2024/01/24 02:30:53;;;;;;;173.18;163.82;;;13.80;99.90;;;;;;5033067;28;20443;-87
2024/01/24 02:33:19;;;;;;;209.80;198.65;;;13.80;99.90;;;;;;5054346;28;20033;-86
2024/01/24 02:35:45;;;;;;;158.15;149.95;;;13.80;99.90;;;;;;5053601;28;20047;-86
2024/01/24 02:38:12;;;;;;;233.65;221.02;;;13.80;99.90;;;;;;5035624;28;20045;-87
2024/01/24 02:40:38;;;;;;;149.25;141.65;;;13.80;99.90;;;;;;5034765;28;20033;-86
2024/01/24 02:43:07;;;;;;;127.10;120.82;;;13.80;99.90;;;;;;5051584;28;20036;-86
2024/01/24 02:45:33;;;;;;;146.43;138.77;;;13.80;99.90;;;;;;5049240;28;20047;-87
2024/01/24 02:48:00;;;;;;;163.43;154.73;;;13.80;99.90;;;;;;5054106;28;20033;-86
2024/01/24 02:50:26;;;;;;;140.80;133.57;;;13.80;99.90;;;;;;5053252;28;20033;-86
2024/01/24 02:52:55;;;;;;;135.77;128.57;;;13.80;99.90;;;;;;5053491;28;20033;-86
2024/01/24 02:55:21;;;;;;;123.72;117.45;;;13.80;99.90;;;;;;5053605;28;20048;-86
2024/01/24 02:57:47;;;;;;;128.30;121.68;;;13.80;99.90;;;;;;5052292;28;20053;-87
2024/01/24 03:00:13;;;;;;;132.55;125.55;;;13.80;99.90;;;;;;5034462;28;20033;-87
2024/01/24 03:02:42;;;;;;;140.25;132.70;;;13.80;99.90;;;;;;5045740;28;20033;-84
2024/01/24 03:05:08;;;;;;;128.77;122.25;;;13.80;99.90;;;;;;5023958;28;20067;-79
2024/01/24 03:07:38;;;;;;;144.63;137.30;;;13.80;99.90;;;;;;5047230;28;21450;-79
2024/01/24 03:10:04;;;;;;;115.18;109.15;;;13.80;99.90;;;;;;5045649;28;20045;-80
2024/01/24 03:12:31;;;;;;;189.65;179.52;;;13.80;99.90;;;;;;5045091;28;20047;-80
2024/01/24 03:14:57;;;;;;;202.70;191.65;;;13.80;99.90;;;;;;5049552;28;20045;-80
2024/01/24 03:17:23;;;;;;;209.80;198.55;;;13.80;99.90;;;;;;5048722;28;20055;-83
2024/01/24 03:19:49;;;;;;;172.25;163.27;;;13.90;99.90;;;;;;5049915;28;20044;-80
2024/01/24 03:22:15;;;;;;;148.52;140.77;;;13.80;99.90;;;;;;5047803;28;20045;-80
2024/01/24 03:24:42;;;;;;;168.60;159.13;;;13.80;99.90;;;;;;5049313;28;20049;-78
2024/01/24 03:27:08;;;;;;;129.98;123.00;;;13.80;99.90;;;;;;5049721;28;20044;-79
2024/01/24 03:29:34;;;;;;;172.73;163.55;;;13.80;99.90;;;;;;5036354;28;20034;-78
2024/01/24 03:32:00;;;;;;;185.23;175.65;;;13.90;99.90;;;;;;5045446;28;20048;-80
2024/01/24 03:34:30;;;;;;;211.48;200.02;;;13.90;99.90;;;;;;5049117;28;20037;-80
2024/01/24 03:36:56;;;;;;;216.50;204.70;;;13.80;99.90;;;;;;5032810;28;20049;-81
2024/01/24 03:39:22;;;;;;;180.98;171.10;;;13.80;99.90;;;;;;5053001;28;20036;-80
2024/01/24 03:41:48;;;;;;;176.30;166.70;;;13.90;99.90;;;;;;5055884;28;20043;-80
2024/01/24 03:44:15;;;;;;;195.85;185.20;;;13.80;99.90;;;;;;5034051;28;20037;-80
2024/01/24 03:46:41;;;;;;;158.27;149.52;;;13.90;99.90;;;;;;5054092;28;20045;-80
2024/01/24 03:49:07;;;;;;;160.93;152.40;;;13.90;99.90;;;;;;5055482;28;20025;-81
2024/01/24 03:51:33;;;;;;;224.88;212.98;;;13.90;99.90;;;;;;5052868;28;20048;-80
2024/01/24 03:53:59;;;;;;;170.68;161.45;;;13.90;99.90;;;;;;5054936;28;20029;-80
2024/01/24 03:56:26;;;;;;;159.68;151.13;;;13.90;99.90;;;;;;5054599;28;20033;-79
2024/01/24 03:58:52;;;;;;;236.32;223.25;;;13.80;99.90;;;;;;5036857;28;20483;-79
2024/01/24 04:01:18;;;;;;;151.07;142.93;;;13.80;99.90;;;;;;5053443;28;20048;-80
2024/01/24 04:03:44;;;;;;;202.50;191.63;;;13.80;99.90;;;;;;5053722;28;20025;-79
2024/01/24 04:06:10;;;;;;;155.18;146.85;;;13.80;99.90;;;;;;5053279;28;20037;-78
2024/01/24 04:08:36;;;;;;;174.27;164.88;;;13.80;99.90;;;;;;5038105;28;20511;-85
2024/01/24 04:11:03;;;;;;;171.30;162.15;;;13.90;99.90;;;;;;5055964;28;20048;-88
2024/01/24 04:13:29;;;;;;;188.02;177.82;;;13.80;99.90;;;;;;5053906;28;20033;-87
2024/01/24 04:15:55;;;;;;;218.60;206.68;;;13.80;99.90;;;;;;5038581;28;20035;-87
2024/01/24 04:18:21;;;;;;;157.50;149.25;;;13.80;99.90;;;;;;5056472;28;20041;-86
2024/01/24 04:20:50;;;;;;;178.20;168.23;;;13.80;99.90;;;;;;5056781;28;20028;-85
2024/01/24 04:23:16;;;;;;;124.93;118.28;;;13.80;99.90;;;;;;5056585;28;20052;-86
2024/01/24 04:25:42;;;;;;;116.32;110.15;;;13.80;99.90;;;;;;5056788;28;20032;-87
2024/01/24 04:28:09;;;;;;;201.18;189.90;;;13.80;99.90;;;;;;5056406;28;20048;-86
2024/01/24 04:30:35;;;;;;;162.98;154.32;;;13.80;99.90;;;;;;5054973;28;20494;-86
2024/01/24 04:33:01;;;;;;;166.63;157.30;;;13.80;99.90;;;;;;5054651;28;20040;-86
2024/01/24 04:35:27;;;;;;;167.40;158.05;;;13.80;99.90;;;;;;5056574;28;20569;-87
2024/01/24 04:37:56;;;;;;;161.05;152.65;;;13.80;99.90;;;;;;5056292;28;20037;-83
2024/01/24 04:40:22;;;;;;;145.77;138.00;;;13.80;99.90;;;;;;5057841;28;20040;-87
2024/01/24 04:42:48;;;;;;;165.65;157.05;;;13.80;99.90;;;;;;5052825;28;20028;-86
2024/01/24 04:45:15;;;;;;;193.23;182.82;;;13.80;99.90;;;;;;5053102;28;20108;-87
2024/01/24 04:47:45;;;;;;;162.65;153.48;;;13.80;99.90;;;;;;5053038;28;20048;-87
2024/01/24 04:50:14;;;;;;;185.82;175.82;;;13.80;99.90;;;;;;5035207;28;20041;-86
2024/01/24 04:52:44;;;;;;;166.93;157.85;;;13.80;99.90;;;;;;5055898;28;20463;-84
2024/01/24 04:55:11;;;;;;;150.00;141.68;;;13.80;99.90;;;;;;5056404;28;20025;-87
2024/01/24 04:57:38;;;;;;;139.80;132.02;;;13.80;99.90;;;;;;5053066;28;20041;-87
2024/01/24 05:00:08;;;;;;;127.13;119.45;;;13.80;99.90;;;;;;5055012;28;20383;-87
2024/01/24 05:02:34;;;;;;;139.00;131.18;;;13.80;99.90;;;;;;5040063;28;20033;-86
2024/01/24 05:05:01;;;;;;;131.32;124.07;;;13.80;99.90;;;;;;5054084;28;20048;-84
2024/01/24 05:07:27;;;;;;;109.38;102.97;;;13.80;99.90;;;;;;5053143;28;20053;-85
2024/01/24 05:09:53;;;;;;;128.55;121.43;;;13.80;99.90;;;;;;5053943;28;20045;-84
2024/01/24 05:12:19;;;;;;;135.43;127.57;;;13.80;99.90;;;;;;5052303;28;20435;-85
2024/01/24 05:14:46;;;;;;;141.60;132.85;;;13.80;99.90;;;;;;5053739;28;20025;-85
2024/01/24 05:17:12;;;;;;;146.45;137.15;;;13.80;99.90;;;;;;5053864;28;20037;-84
2024/01/24 05:19:38;;;;;;;129.48;121.97;;;13.80;99.90;;;;;;5053524;28;20040;-84
2024/01/24 05:22:04;;;;;;;180.25;161.82;;;13.80;99.90;;;;;;5052660;28;20029;-84
2024/01/24 05:24:30;;;;;;;163.82;150.98;;;13.80;99.90;;;;;;5035943;28;20036;-85
2024/01/24 05:26:57;;;;;;;137.85;129.68;;;13.70;99.90;;;;;;5053258;28;20049;-81
2024/01/24 05:29:23;;;;;;;150.25;139.50;;;13.70;99.90;;;;;;5053777;28;20029;-82
2024/01/24 05:31:49;;;;;;;139.20;131.50;;;13.80;99.90;;;;;;5050075;28;20068;-76
2024/01/24 05:34:15;;;;;;;133.40;125.70;;;13.80;99.90;;;;;;5023817;28;20025;-75
2024/01/24 05:36:41;;;;;;;134.23;127.03;;;13.80;99.90;;;;;;5053209;28;20045;-75
2024/01/24 05:39:07;;;;;;;117.55;110.60;;;13.80;99.90;;;;;;5053575;28;20029;-76
2024/01/24 05:41:35;;;;;;;134.93;127.43;;;13.80;99.90;;;;;;5052591;28;20029;-75
2024/01/24 05:44:01;;;;;;;121.78;114.75;;;13.70;99.90;;;;;;5053459;28;20017;-75
2024/01/24 05:46:27;;;;;;;137.65;130.00;;;13.70;99.90;;;;;;5017714;28;20483;-76
2024/01/24 05:48:53;;;;;;;132.23;124.85;;;13.80;99.90;;;;;;5035652;28;20021;-76
2024/01/24 05:51:19;;;;;;;144.80;133.35;;;13.80;99.90;;;;;;5053275;28;20492;-76
2024/01/24 05:53:45;;;;;;;132.48;124.80;;;13.70;99.90;;;;;;5035740;28;20025;-76
2024/01/24 05:56:11;;;;;;;131.73;123.88;;;13.70;99.90;;;;;;5052640;28;20380;-76
2024/01/24 05:58:37;;;;;;;142.25;134.10;;;13.70;99.90;;;;;;5053443;28;20025;-76
2024/01/24 06:01:05;;;;;;;140.63;132.63;;;13.70;99.90;;;;;;5052328;28;20040;-76
2024/01/24 06:03:33;;;;;;;141.15;133.05;;;13.70;99.90;;;;;;5052554;28;20389;-75
2024/01/24 06:05:59;;;;;;;140.45;132.20;;;13.80;99.90;;;;;;5035245;28;20385;-75
2024/01/24 06:08:25;;;;;;;131.98;124.05;;;13.70;99.90;;;;;;5053097;28;20044;-75
2024/01/24 06:10:52;;;;;;;141.75;133.55;;;13.70;99.90;;;;;;5031091;28;20080;-75
2024/01/24 06:13:18;;;;;;;150.93;142.35;;;13.70;99.90;;;;;;5032917;28;20495;-75
2024/01/24 06:15:44;;;;;;;137.88;130.27;;;13.70;99.90;;;;;;5030656;28;20021;-76
2024/01/24 06:18:10;;;;;;;144.63;135.95;;;13.70;99.90;;;;;;5012208;28;20038;-76
2024/01/24 06:20:36;;;;;;;136.68;128.38;;;13.70;99.90;;;;;;5013150;28;20033;-76
2024/01/24 06:23:02;;;;;;;157.77;148.43;;;13.70;99.90;;;;;;5013475;28;20030;-75
2024/01/24 06:25:28;;;;;;;158.40;149.30;;;13.70;99.90;;;;;;5012740;28;20038;-75
2024/01/24 06:27:54;;;;;;;110.57;104.32;;;13.70;99.90;;;;;;5012915;28;20030;-76
2024/01/24 06:30:20;;;;;;;146.90;138.00;;;13.70;99.90;;;;;;5012641;28;20034;-76
2024/01/24 06:32:47;;;;;;;132.45;124.93;;;13.70;99.90;;;;;;5016876;28;20391;-75
2024/01/24 06:35:14;;;;;;;148.50;139.95;;;13.70;99.90;;;;;;5032322;28;20068;-78
2024/01/24 06:37:40;;;;;;;142.93;134.70;;;13.70;99.90;;;;;;5032450;28;20044;-78
2024/01/24 06:40:09;;;;;;;131.13;123.60;;;13.70;99.90;;;;;;5032678;28;20041;-78
2024/01/24 06:42:37;;;;;;;134.98;126.95;;;13.70;99.90;;;;;;5015902;28;20042;-79
2024/01/24 06:45:03;;;;;;;150.48;141.88;;;13.70;99.90;;;;;;5012545;28;20029;-77
2024/01/24 06:47:29;;;;;;;153.82;144.85;;;13.80;99.90;;;;;;5012840;28;20036;-78
2024/01/24 06:49:55;;;;;;;152.20;143.05;;;13.80;99.90;;;;;;5013068;28;20380;-78
2024/01/24 06:52:21;;;;;;;149.70;141.15;;;13.70;99.90;;;;;;5012664;28;20042;-79
2024/01/24 06:54:47;;;;;;;172.48;162.48;;;13.70;99.90;;;;;;5012564;28;20420;-78
2024/01/24 06:57:13;;;;;;;144.00;136.00;;;13.80;99.90;;;;;;5012710;28;20042;-78
2024/01/24 06:59:40;;;;;;;152.90;144.25;;;13.70;99.90;;;;;;5012901;28;20404;-78
2024/01/24 07:02:06;;;;;;;144.98;135.80;;;13.70;99.90;;;;;;5011984;28;20038;-78
2024/01/24 07:04:32;;;;;;;179.93;169.60;;;13.70;99.90;;;;;;5013010;28;20026;-89
2024/01/24 07:06:58;;;;;;;158.55;149.68;;;13.80;99.90;;;;;;5012426;28;20034;-78
2024/01/24 07:09:25;;;;;;;147.15;138.38;;;13.80;99.90;;;;;;5020022;28;20068;-78
2024/01/24 07:11:51;;;;;;;148.68;140.05;;;13.80;99.90;;;;;;5032340;28;20040;-78
2024/01/24 07:14:17;;;;;;;138.50;130.73;;;13.80;99.90;;;;;;5032089;28;20406;-78
2024/01/24 07:16:44;;;;;;;155.75;146.52;;;13.80;99.90;;;;;;5031601;28;20471;-78
2024/01/24 07:19:10;;;;;;;149.23;141.10;;;13.80;99.90;;;;;;5032217;28;20037;-77
2024/01/24 07:21:36;;;;;;;166.82;157.68;;;13.80;99.90;;;;;;5023625;28;20029;-74
2024/01/24 07:24:03;;;;;;;154.63;145.93;;;13.70;99.90;;;;;;5051092;28;20041;-77
2024/01/24 07:26:29;;;;;;;155.75;146.70;;;13.70;99.90;;;;;;5052169;28;20060;-78
2024/01/24 07:28:55;;;;;;;150.93;142.18;;;13.70;99.90;;;;;;5034183;28;20029;-78
2024/01/24 07:31:21;;;;;;;167.27;157.73;;;13.70;99.90;;;;;;5051530;28;20155;-77
2024/01/24 07:33:48;;;;;;;204.35;192.75;;;13.70;99.90;;;;;;5048876;28;20021;-78
2024/01/24 07:36:14;;;;;;;165.57;156.38;;;13.70;99.90;;;;;;5051545;28;20044;-83
2024/01/24 07:38:40;;;;;;;210.63;198.80;;;13.70;99.90;;;;;;5033663;28;20032;-83
2024/01/24 07:41:07;;;;;;;203.93;192.57;;;13.70;99.90;;;;;;5051294;28;20041;-80
2024/01/24 07:43:33;;;;;;;132.98;125.40;;;13.70;99.90;;;;;;5050775;28;20052;-81
2024/01/24 07:46:00;;;;;;;145.40;137.25;;;13.70;99.90;;;;;;5051142;28;20625;-81
2024/01/24 07:48:26;;;;;;;198.13;186.50;;;13.70;99.90;;;;;;5034588;28;20025;-81
2024/01/24 07:50:53;;;;;;;152.82;144.02;;;13.70;99.90;;;;;;5051904;28;20040;-80
2024/01/24 07:53:19;;;;;;;126.22;119.18;;;13.70;99.90;;;;;;5051115;28;20099;-81
2024/01/24 07:55:45;;;;;;;144.70;136.68;;;13.70;99.90;;;;;;5051496;28;20032;-81
2024/01/24 07:58:11;;;;;;;165.98;155.20;;;13.70;99.90;;;;;;5050810;28;20406;-80
2024/01/24 08:00:37;;;;;;;175.15;164.95;;;13.70;99.90;;;;;;5051194;28;20037;-81
2024/01/24 08:03:03;;;;;;;189.77;179.30;;;13.80;99.90;;;;;;5051901;28;20029;-80
2024/01/24 08:05:30;;;;;;;137.48;129.63;;;13.70;99.90;;;;;;5051417;28;20033;-80
2024/01/24 08:07:56;;;;;;;144.02;135.98;;;13.80;99.90;;;;;;5050515;28;20037;-80
2024/01/24 08:10:23;;;;;;;174.20;164.43;;;13.70;99.90;;;;;;5030257;28;20049;-80
2024/01/24 08:12:49;;;;;;;157.50;148.48;;;13.70;99.90;;;;;;5031767;28;20030;-81
2024/01/24 08:15:15;;;;;;;156.02;147.45;;;13.80;99.90;;;;;;5031078;28;20028;-81
2024/01/24 08:17:41;;;;;;;165.68;156.35;;;13.80;99.90;;;;;;5031826;28;20034;-80
2024/01/24 08:20:08;;;;;;;176.18;160.77;;;13.70;99.90;;;;;;5031421;28;20032;-81
2024/01/24 08:22:34;;;;;;;200.55;189.23;;;13.70;99.90;;;;;;5030937;28;20395;-81
2024/01/24 08:25:01;;;;;;;196.50;185.35;;;13.80;99.90;;;;;;5030685;28;20037;-81
2024/01/24 08:27:27;;;;;;;182.52;172.20;;;13.80;99.90;;;;;;5034627;28;20053;-80
2024/01/24 08:29:53;;;;;;;207.57;196.30;;;13.80;99.90;;;;;;5035191;28;20033;-76
2024/01/24 08:32:19;;;;;;;267.38;252.55;;;13.80;99.90;;;;;;5034069;28;20503;-84
2024/01/24 08:34:45;;;;;;;251.00;237.35;;;13.80;99.90;;;;;;5034958;28;20037;-78
2024/01/24 08:37:12;;;;;;;229.10;216.57;;;13.80;99.90;;;;;;5032995;28;20038;-78
2024/01/24 08:39:40;;;;;;;189.98;179.70;;;13.80;99.90;;;;;;5031450;28;20046;-78
2024/01/24 08:42:07;;;;;;;218.65;206.52;;;13.90;99.90;;;;;;5034425;28;20041;-77
2024/01/24 08:44:33;;;;;;;208.18;196.45;;;13.90;99.90;;;;;;5034730;28;20480;-78
2024/01/24 08:46:59;;;;;;;224.10;211.27;;;13.90;99.90;;;;;;5032576;28;20037;-78
2024/01/24 08:49:25;;;;;;;230.27;217.35;;;13.90;99.90;;;;;;5034544;28;20052;-78
2024/01/24 08:51:51;;;;;;;198.77;187.50;;;13.90;99.90;;;;;;5020243;28;20033;-77
2024/01/24 08:54:17;;;;;;;227.07;214.82;;;13.90;99.90;;;;;;5014889;28;20033;-78
2024/01/24 08:56:43;;;;;;;232.77;220.02;;;13.90;99.90;;;;;;5014587;28;20037;-77
2024/01/24 08:59:09;;;;;;;194.00;183.63;;;13.90;99.90;;;;;;5014852;28;20037;-78
2024/01/24 09:01:35;;;;;;;130.60;123.55;;;13.90;99.90;;;;;;5013811;28;20057;-78
2024/01/24 09:04:01;;;;;;;195.63;185.20;;;13.90;99.90;;;;;;5013638;28;20026;-77
2024/01/24 09:06:27;;;;;;;171.85;162.38;;;13.90;99.90;;;;;;5023040;28;20033;-77
2024/01/24 09:08:54;;;;;;;181.77;172.02;;;14.00;99.90;;;;;;5037971;28;20041;-78
2024/01/24 09:11:20;;;;;;;185.93;175.77;;;14.00;99.90;;;;;;5053068;28;20610;-78
2024/01/24 09:13:47;;;;;;;197.43;186.55;;;14.00;99.90;;;;;;5035429;28;20021;-80
2024/01/24 09:16:14;;;;;;;164.70;155.35;;;14.00;99.90;;;;;;5052511;28;20491;-76
2024/01/24 09:18:40;;;;;;;189.75;174.05;;;14.00;99.90;;;;;;5019363;28;20040;-75
2024/01/24 09:21:06;;;;;;;263.05;248.88;;;14.00;99.90;;;;;;5046284;28;20030;-75
2024/01/24 09:23:32;;;;;;;333.27;314.40;;;14.10;99.90;;;;;;5029487;28;20033;-76
2024/01/24 09:25:58;;;;;;;240.98;227.52;;;14.10;99.90;;;;;;5052529;28;20582;-77
2024/01/24 09:28:24;;;;;;;254.60;240.65;;;14.10;99.90;;;;;;5053032;28;20503;-77
2024/01/24 09:30:50;;;;;;;325.50;307.02;;;14.10;99.90;;;;;;5047519;28;20418;-76
2024/01/24 09:33:17;;;;;;;317.90;299.90;;;14.10;99.90;;;;;;5041668;28;20040;-76
2024/01/24 09:35:44;;;;;;;357.67;337.33;;;14.20;99.90;;;;;;5047537;28;20034;-76
2024/01/24 09:38:10;;;;;;;360.55;339.15;;;14.20;99.90;;;;;;5049952;28;20057;-75
2024/01/24 09:40:37;;;;;;;363.35;342.02;;;14.20;99.90;;;;;;5053382;28;20036;-76
2024/01/24 09:43:03;;;;;;;156.43;147.85;;;14.20;99.90;;;;;;5035803;28;20033;-76
2024/01/24 09:45:29;;;;;;;206.80;195.40;;;14.20;99.90;;;;;;5052294;28;20029;-75
2024/01/24 09:47:57;;;;;;;220.82;208.77;;;14.20;99.90;;;;;;5018930;28;20048;-75
2024/01/24 09:50:23;;;;;;;212.95;201.07;;;14.20;99.90;;;;;;5050274;28;20036;-78
2024/01/24 09:52:53;;;;;;;236.80;223.63;;;14.30;99.90;;;;;;5036721;28;20057;-76
2024/01/24 09:55:20;;;;;;;231.07;217.40;;;14.30;99.90;;;;;;5017806;28;20028;-75
2024/01/24 09:57:46;;;;;;;226.88;214.25;;;14.30;99.90;;;;;;5034412;28;20036;-76
2024/01/24 10:00:14;;;;;;;228.13;215.45;;;14.30;99.90;;;;;;5051649;28;20029;-77
2024/01/24 10:02:44;;;;;;;233.10;220.38;;;14.30;99.90;;;;;;5044458;28;20428;-77
2024/01/24 10:05:16;;;;;;;281.48;265.92;;;14.30;99.90;;;;;;5031284;28;20462;-76
2024/01/24 10:07:43;;;;;;;201.40;190.52;;;14.30;99.90;;;;;;5045081;28;20052;-76
2024/01/24 10:10:10;;;;;;;231.80;219.18;;;14.40;99.90;;;;;;5052341;28;20060;-76
2024/01/24 10:12:36;;;;;;;184.40;174.40;;;14.40;99.90;;;;;;5033776;28;20049;-76
2024/01/24 10:15:02;;;;;;;210.13;198.73;;;14.40;99.90;;;;;;5051201;28;20055;-74
2024/01/24 10:17:28;;;;;;;186.13;176.40;;;14.40;99.90;;;;;;5032314;28;20033;-76
2024/01/24 10:19:54;;;;;;;163.73;154.98;;;14.40;99.90;;;;;;5052483;28;20052;-79
2024/01/24 10:22:24;;;;;;;205.02;193.82;;;14.40;99.90;;;;;;5047230;28;20048;-79
2024/01/24 10:24:52;;;;;;;205.38;194.38;;;14.50;99.90;;;;;;5050747;28;20056;-79
2024/01/24 10:27:19;;;;;;;200.90;190.23;;;14.50;99.90;;;;;;5052430;28;20041;-79
2024/01/24 10:29:45;;;;;;;187.02;177.25;;;14.50;99.90;;;;;;5052161;28;20023;-79
2024/01/24 10:32:12;;;;;;;178.13;168.90;;;14.50;99.90;;;;;;5051512;28;20049;-79
2024/01/24 10:34:38;;;;;;;172.98;163.85;;;14.40;99.90;;;;;;5034407;28;20032;-79
2024/01/24 10:37:07;;;;;;;162.43;153.95;;;14.50;99.90;;;;;;5049728;28;20032;-79
2024/01/24 10:39:35;;;;;;;159.13;150.65;;;14.50;99.90;;;;;;5047026;28;20467;-79
2024/01/24 10:42:03;;;;;;;151.55;143.32;;;14.50;99.90;;;;;;5050506;28;20040;-79
2024/01/24 10:44:32;;;;;;;151.00;143.30;;;14.50;99.90;;;;;;5034225;28;20029;-79
2024/01/24 10:46:58;;;;;;;166.93;157.77;;;14.50;99.90;;;;;;5033254;28;20055;-79
2024/01/24 10:49:24;;;;;;;204.38;193.60;;;14.50;99.90;;;;;;5034107;28;20487;-79
2024/01/24 10:51:50;;;;;;;144.63;137.10;;;14.50;99.90;;;;;;5020274;28;20045;-79
2024/01/24 10:54:17;;;;;;;189.80;179.50;;;14.50;99.90;;;;;;5051117;28;20036;-80
2024/01/24 10:56:48;;;;;;;168.05;159.55;;;14.50;99.90;;;;;;5033588;28;20039;-79
2024/01/24 10:59:14;;;;;;;194.10;184.02;;;14.50;99.90;;;;;;5034909;28;20032;-79
2024/01/24 11:01:41;;;;;;;191.13;181.55;;;14.60;99.90;;;;;;5033065;28;20045;-79
2024/01/24 11:04:07;;;;;;;127.22;120.82;;;14.60;99.90;;;;;;5033030;28;20391;-79
2024/01/24 11:06:33;;;;;;;126.57;120.03;;;14.60;99.90;;;;;;5050950;28;20045;-79
2024/01/24 11:09:31;;;;;;;119.82;113.78;;;14.70;99.90;;;;;;5050925;28;20070;-77
2024/01/24 11:11:58;;;;;;;147.52;140.13;;;14.70;99.90;;;;;;5020850;28;20052;-78
2024/01/24 11:14:31;;;;;;;160.75;152.60;;;14.70;99.90;;;;;;5012424;28;20103;-78
2024/01/24 11:16:58;;;;;;;128.15;121.75;;;14.70;99.90;;;;;;5035167;28;20038;-78
2024/01/24 11:19:25;;;;;;;113.43;107.78;;;14.70;99.90;;;;;;5014004;28;20045;-78
2024/01/24 11:21:52;;;;;;;118.38;112.45;;;14.70;99.90;;;;;;5013806;28;20048;-78
2024/01/24 11:24:40;;;;;;;121.82;115.97;;;14.80;99.90;;;;;;5043648;28;20048;-78
2024/01/24 11:27:30;;;;;;;142.93;135.68;;;14.80;99.90;;;;;;5034944;28;20381;-78
2024/01/24 11:29:56;;;;;;;124.50;118.38;;;14.80;99.90;;;;;;5044244;28;20045;-78
2024/01/24 11:32:44;;;;;;;114.03;108.43;;;14.80;99.90;;;;;;5032016;28;20104;-77
2024/01/24 11:35:40;;;;;;;190.23;180.60;;;14.80;99.90;;;;;;5049659;28;20029;-78
2024/01/24 11:38:26;;;;;;;147.30;139.57;;;14.80;99.90;;;;;;5051391;28;20462;-78
2024/01/24 11:40:56;;;;;;;138.85;131.93;;;14.90;99.90;;;;;;5050027;28;20048;-79
2024/01/24 11:43:32;;;;;;;117.13;111.35;;;14.90;99.90;;;;;;5052021;28;20032;-77
2024/01/24 11:46:05;;;;;;;109.57;104.25;;;14.90;99.90;;;;;;5049529;28;20029;-78
2024/01/24 11:48:36;;;;;;;109.55;103.93;;;14.90;99.90;;;;;;5047497;28;20395;-79
2024/01/24 11:51:04;;;;;;;176.00;167.25;;;14.90;99.90;;;;;;5049638;28;20073;-79
2024/01/24 11:53:30;;;;;;;164.57;156.20;;;14.90;99.90;;;;;;5050969;28;20025;-79
2024/01/24 11:55:58;;;;;;;174.02;165.15;;;14.90;99.90;;;;;;5050486;28;20483;-79
2024/01/24 11:58:28;;;;;;;100.78;95.88;;;15.00;99.90;;;;;;5051130;28;20021;-78
2024/01/24 12:00:55;;;;;;;121.10;114.77;;;15.00;99.90;;;;;;5051716;28;20491;-79
2024/01/24 12:03:21;;;;;;;111.80;106.18;;;15.00;99.90;;;;;;5055133;28;20021;-78
2024/01/24 12:05:48;;;;;;;106.32;101.07;;;15.00;99.90;;;;;;5054179;28;20048;-79
2024/01/24 12:08:14;;;;;;;116.25;110.38;;;15.00;99.90;;;;;;5054825;28;20495;-79